Time;durP1;ratioP1;P1;durP2;ratioP2;P2;SDS_P1;SDS_P2;PMS_P1;PMS_P2;Temp;Humidity;BMP_temperature;BMP_pressure;BME280_temperature;BME280_humidity;BME280_pressure;Samples;Min_cycle;Max_cycle;Signal;HPM_P1;HPM_P2
2023/07/12 00:01:44;;;;;;;4.60;1.77;;;20.70;99.90;;;;;;5075963;28;20024;-91
2023/07/12 00:04:10;;;;;;;4.85;2.05;;;20.00;99.90;;;;;;5075989;28;20583;-90
2023/07/12 00:06:55;;;;;;;5.85;2.15;;;20.40;99.90;;;;;;5076036;28;20024;-91
2023/07/12 00:09:21;;;;;;;6.47;2.70;;;19.60;99.90;;;;;;5075581;28;20040;-90
2023/07/12 00:11:46;;;;;;;6.40;1.70;;;20.00;99.90;;;;;;5076075;28;20021;-90
2023/07/12 00:14:12;;;;;;;8.20;2.28;;;20.30;99.90;;;;;;5075318;28;20429;-91
2023/07/12 00:16:54;;;;;;;6.65;2.08;;;20.20;99.90;;;;;;5075593;28;20507;-89
2023/07/12 00:19:20;;;;;;;6.97;2.22;;;20.90;99.90;;;;;;5076085;28;20445;-91
2023/07/12 00:21:45;;;;;;;3.67;2.03;;;20.00;99.90;;;;;;5075400;28;20055;-91
2023/07/12 00:24:30;;;;;;;7.47;2.38;;;20.00;99.90;;;;;;5075634;28;20361;-92
2023/07/12 00:26:55;;;;;;;5.55;2.40;;;20.00;99.90;;;;;;5075500;28;20020;-91
2023/07/12 00:29:33;;;;;;;10.10;2.55;;;20.00;99.90;;;;;;5075679;28;20205;-91
2023/07/12 00:31:59;;;;;;;13.07;2.78;;;19.90;99.90;;;;;;5075587;28;20074;-91
2023/07/12 00:34:35;;;;;;;5.57;3.25;;;20.80;99.90;;;;;;5075532;28;20407;-91
2023/07/12 00:37:23;;;;;;;9.82;2.50;;;19.80;99.90;;;;;;5082332;28;20020;-91
2023/07/12 00:39:48;;;;;;;8.65;2.70;;;20.20;99.90;;;;;;5096038;28;20052;-91
2023/07/12 00:42:36;;;;;;;14.27;3.67;;;19.80;99.90;;;;;;5089920;28;20047;-91
2023/07/12 00:45:25;;;;;;;11.13;3.20;;;19.90;99.90;;;;;;5075542;28;20496;-91
2023/07/12 00:47:51;;;;;;;9.98;2.80;;;19.50;99.90;;;;;;5075248;28;20120;-91
2023/07/12 00:50:28;;;;;;;9.48;2.90;;;19.60;99.90;;;;;;5077488;28;20040;-91
2023/07/12 00:52:54;;;;;;;10.90;2.92;;;19.40;99.90;;;;;;5075701;28;20055;-91
2023/07/12 00:55:50;;;;;;;12.07;3.33;;;19.60;99.90;;;;;;5075315;28;20024;-91
2023/07/12 00:58:40;;;;;;;15.32;3.58;;;19.40;99.90;;;;;;5081399;28;20468;-91
2023/07/12 01:01:17;;;;;;;11.55;3.03;;;19.50;99.90;;;;;;5133903;22;20086;-89
2023/07/12 01:03:44;;;;;;;11.07;3.30;;;19.50;99.90;;;;;;5074822;28;20112;-89
2023/07/12 01:06:18;;;;;;;13.65;3.47;;;19.60;99.90;;;;;;5074496;28;20039;-91
2023/07/12 01:09:08;;;;;;;10.85;3.63;;;20.90;99.90;;;;;;5074489;28;20514;-90
2023/07/12 01:11:49;;;;;;;;;;;19.60;99.90;;;;;;5075100;28;20104;-90
2023/07/12 01:14:27;;;;;;;12.25;3.28;;;19.50;99.90;;;;;;5075036;28;19905;-90
2023/07/12 01:17:15;;;;;;;13.85;3.50;;;20.50;99.90;;;;;;5074621;28;20024;-92
2023/07/12 01:20:01;;;;;;;14.18;3.10;;;19.40;99.90;;;;;;5074898;28;20069;-90
2023/07/12 01:22:27;;;;;;;9.82;3.75;;;20.20;99.90;;;;;;5074701;28;20086;-91
2023/07/12 01:25:12;;;;;;;8.07;3.15;;;19.70;99.90;;;;;;5074594;28;20103;-90
2023/07/12 01:27:58;;;;;;;19.45;3.10;;;20.10;99.90;;;;;;5074648;28;20063;-90
2023/07/12 01:30:25;;;;;;;10.65;3.50;;;19.20;99.90;;;;;;5074161;28;20498;-90
2023/07/12 01:33:12;;;;;;;10.82;3.25;;;19.20;99.90;;;;;;5073704;28;20020;-91
2023/07/12 01:35:37;;;;;;;10.65;3.17;;;18.90;99.90;;;;;;5074608;28;20048;-91
2023/07/12 01:38:19;;;;;;;8.02;3.13;;;19.20;99.90;;;;;;5073902;28;20059;-90
2023/07/12 01:41:07;;;;;;;10.88;3.42;;;19.20;99.90;;;;;;5074668;28;20372;-90
2023/07/12 01:43:34;;;;;;;7.90;2.75;;;18.70;99.90;;;;;;5074766;28;20039;-90
2023/07/12 01:46:49;;;;;;;7.40;2.50;;;19.20;99.90;;;;;;5074359;28;20021;-91
2023/07/12 01:49:14;;;;;;;12.02;2.85;;;19.10;99.90;;;;;;5074898;28;20033;-91
2023/07/12 01:52:30;;;;;;;8.75;2.97;;;19.40;99.90;;;;;;5073968;28;20488;-91
2023/07/12 01:55:14;;;;;;;10.70;3.63;;;19.00;99.90;;;;;;5073828;28;20029;-89
2023/07/12 01:57:51;;;;;;;17.42;4.03;;;19.00;99.90;;;;;;5074490;28;20031;-90
2023/07/12 02:00:33;;;;;;;7.03;3.20;;;18.80;99.90;;;;;;5073888;28;20079;-91
2023/07/12 02:02:59;;;;;;;7.88;3.05;;;18.50;99.90;;;;;;5073681;28;20028;-90
2023/07/12 02:05:31;;;;;;;10.60;3.50;;;19.00;99.90;;;;;;5074553;28;20088;-90
2023/07/12 02:07:59;;;;;;;13.63;4.18;;;19.00;99.90;;;;;;5073264;28;20063;-91
2023/07/12 02:10:37;;;;;;;12.45;3.53;;;18.80;99.90;;;;;;5073864;28;20051;-91
2023/07/12 02:13:16;;;;;;;10.55;3.05;;;19.10;99.90;;;;;;5073819;28;20029;-91
2023/07/12 02:15:43;;;;;;;12.35;3.72;;;19.10;99.90;;;;;;5073725;28;20025;-91
2023/07/12 02:18:18;;;;;;;12.02;3.75;;;20.00;99.90;;;;;;5073928;28;20028;-91
2023/07/12 02:20:44;;;;;;;9.65;3.80;;;19.20;99.90;;;;;;5074116;28;20031;-90
2023/07/12 02:23:21;;;;;;;11.18;3.40;;;19.20;99.90;;;;;;5081346;28;20012;-90
2023/07/12 02:25:48;;;;;;;12.70;3.53;;;19.90;99.90;;;;;;5097671;28;20008;-90
2023/07/12 02:28:37;;;;;;;9.25;3.28;;;19.20;99.90;;;;;;5088617;28;20131;-91
2023/07/12 02:31:23;;;;;;;12.75;4.05;;;19.10;99.90;;;;;;5073826;28;20422;-90
2023/07/12 02:33:51;;;;;;;11.38;3.58;;;19.20;99.90;;;;;;5073662;28;20028;-92
2023/07/12 02:36:39;;;;;;;8.65;3.78;;;19.10;99.90;;;;;;5073896;28;20500;-91
2023/07/12 02:39:08;;;;;;;11.82;3.90;;;19.10;99.90;;;;;;4992451;28;20061;-91
2023/07/12 02:41:42;;;;;;;11.80;4.72;;;19.20;99.90;;;;;;4992373;28;20118;-93
2023/07/12 02:44:07;;;;;;;8.48;4.35;;;19.00;99.90;;;;;;4992751;28;20102;-91
2023/07/12 02:46:52;;;;;;;9.82;5.28;;;18.90;99.90;;;;;;4992548;28;20121;-91
2023/07/12 02:49:18;;;;;;;14.25;4.97;;;18.90;99.90;;;;;;5069762;28;20040;-91
2023/07/12 02:52:25;;;;;;;10.50;4.65;;;19.70;99.90;;;;;;5077658;28;20032;-90
2023/07/12 02:54:50;;;;;;;12.30;4.50;;;18.70;99.90;;;;;;5077366;28;20052;-90
2023/07/12 02:57:31;;;;;;;10.13;4.00;;;18.70;99.90;;;;;;5077699;28;20016;-91
2023/07/12 03:00:04;;;;;;;14.52;4.90;;;19.20;99.90;;;;;;5083304;22;20048;-91
2023/07/12 03:02:42;;;;;;;8.98;3.40;;;18.70;99.90;;;;;;5076902;28;20032;-91
2023/07/12 03:05:07;;;;;;;14.93;3.75;;;18.60;99.90;;;;;;5059144;28;20024;-90
2023/07/12 03:08:06;;;;;;;6.95;3.20;;;18.60;99.90;;;;;;5076762;28;20079;-89
2023/07/12 03:10:56;;;;;;;10.15;4.00;;;18.60;99.90;;;;;;5077169;28;20078;-91
2023/07/12 03:13:22;;;;;;;9.05;3.45;;;18.10;99.90;;;;;;5077247;28;20025;-91
2023/07/12 03:16:07;;;;;;;11.63;4.88;;;18.50;99.90;;;;;;5076692;28;20032;-89
2023/07/12 03:18:33;;;;;;;14.07;4.03;;;18.50;99.90;;;;;;5077144;28;20030;-91
2023/07/12 03:21:21;;;;;;;10.30;4.32;;;18.50;99.90;;;;;;5076966;28;20033;-90
2023/07/12 03:23:47;;;;;;;7.30;3.75;;;18.50;99.90;;;;;;5076717;28;20035;-91
2023/07/12 03:26:13;;;;;;;9.73;3.78;;;18.50;99.90;;;;;;5076824;28;20027;-91
2023/07/12 03:28:58;;;;;;;7.40;3.95;;;18.40;99.90;;;;;;5076201;28;20037;-91
2023/07/12 03:31:24;;;;;;;8.32;3.92;;;18.40;99.90;;;;;;5076498;28;20029;-91
2023/07/12 03:33:50;;;;;;;9.70;3.80;;;18.40;99.90;;;;;;5076562;28;20025;-90
2023/07/12 03:36:39;;;;;;;9.82;4.03;;;18.30;99.90;;;;;;5076652;28;20029;-90
2023/07/12 03:39:05;;;;;;;11.85;4.90;;;18.30;99.90;;;;;;5077023;28;20110;-91
2023/07/12 03:41:54;;;;;;;9.88;3.70;;;18.20;99.90;;;;;;5076429;28;20028;-91
2023/07/12 03:44:20;;;;;;;10.98;4.57;;;18.30;99.90;;;;;;5076937;28;20100;-91
2023/07/12 03:47:02;;;;;;;11.75;4.50;;;18.20;99.90;;;;;;5076036;28;20108;-90
2023/07/12 03:49:28;;;;;;;13.68;4.65;;;18.20;99.90;;;;;;5076671;28;20033;-91
2023/07/12 03:51:54;;;;;;;9.70;4.68;;;18.30;99.90;;;;;;5076147;28;20132;-91
2023/07/12 03:54:39;;;;;;;10.70;4.50;;;18.30;99.90;;;;;;5076096;28;20035;-91
2023/07/12 03:57:04;;;;;;;12.40;5.70;;;18.30;99.90;;;;;;5075940;28;20047;-90
2023/07/12 03:59:48;;;;;;;11.60;5.05;;;18.20;99.90;;;;;;5076180;28;20021;-90
2023/07/12 04:02:14;;;;;;;14.43;5.55;;;19.30;99.90;;;;;;5056072;28;20409;-90
2023/07/12 04:04:54;;;;;;;14.43;5.95;;;18.10;99.90;;;;;;5056057;28;20029;-90
2023/07/12 04:07:20;;;;;;;12.20;5.65;;;18.10;99.90;;;;;;5056116;28;20057;-90
2023/07/12 04:10:06;;;;;;;7.70;5.68;;;18.20;99.90;;;;;;5065388;28;20020;-90
2023/07/12 04:12:35;;;;;;;17.50;6.38;;;18.10;99.90;;;;;;5079695;28;20344;-90
2023/07/12 04:15:01;;;;;;;15.75;6.47;;;18.20;99.90;;;;;;5067768;28;20480;-91
2023/07/12 04:17:45;;;;;;;10.30;6.20;;;18.20;99.90;;;;;;5074574;28;20035;-91
2023/07/12 04:20:13;;;;;;;11.95;6.60;;;18.10;99.90;;;;;;5077071;28;20016;-91
2023/07/12 04:22:42;;;;;;;12.25;6.85;;;18.10;99.90;;;;;;5076225;28;20024;-90
2023/07/12 04:25:25;;;;;;;18.67;7.03;;;19.10;99.90;;;;;;5075724;28;20024;-90
2023/07/12 04:27:51;;;;;;;14.07;6.03;;;18.30;99.90;;;;;;5035369;28;20030;-91
2023/07/12 04:30:33;;;;;;;13.88;5.70;;;18.10;99.90;;;;;;5064074;28;20468;-87
2023/07/12 04:33:11;;;;;;;12.40;6.13;;;17.40;99.90;;;;;;5066877;28;20031;-90
2023/07/12 04:35:38;;;;;;;12.05;7.00;;;18.50;99.90;;;;;;5055775;28;20094;-90
2023/07/12 04:41:19;;;;;;;13.73;5.20;;;18.00;99.90;;;;;;5089895;23;20044;-90
2023/07/12 04:44:02;;;;;;;13.07;6.25;;;17.80;99.90;;;;;;5077175;28;20555;-91
2023/07/12 04:46:30;;;;;;;11.20;5.82;;;18.00;99.90;;;;;;5075711;28;20020;-89
2023/07/12 04:49:18;;;;;;;16.65;6.40;;;19.00;99.90;;;;;;5056857;28;20044;-91
2023/07/12 04:51:43;;;;;;;9.50;5.63;;;18.00;99.90;;;;;;5075285;28;20051;-89
2023/07/12 04:54:09;;;;;;;20.13;7.43;;;18.90;99.90;;;;;;5074966;28;20444;-90
2023/07/12 04:56:56;;;;;;;12.30;6.75;;;18.30;99.90;;;;;;5074770;28;20025;-89
2023/07/12 04:59:22;;;;;;;14.52;6.35;;;18.10;99.90;;;;;;5075141;28;20025;-90
2023/07/12 05:01:48;;;;;;;10.15;5.97;;;18.10;99.90;;;;;;5074243;28;20055;-90
2023/07/12 05:04:32;;;;;;;20.08;6.60;;;18.40;99.90;;;;;;5051275;28;20041;-88
2023/07/12 05:06:57;;;;;;;13.77;5.97;;;18.60;99.90;;;;;;5053956;28;20051;-88
2023/07/12 05:09:25;;;;;;;14.38;6.47;;;18.30;99.90;;;;;;5054255;28;20071;-89
2023/07/12 05:12:10;;;;;;;16.65;6.07;;;18.30;99.90;;;;;;5053603;28;20029;-90
2023/07/12 05:15:02;;;;;;;15.55;5.68;;;18.30;99.90;;;;;;5054372;28;20094;-90
2023/07/12 05:17:28;;;;;;;16.48;5.75;;;17.60;99.90;;;;;;5053946;28;20037;-89
2023/07/12 05:20:13;;;;;;;12.60;5.60;;;18.30;99.90;;;;;;5053566;28;20029;-89
2023/07/12 05:22:39;;;;;;;14.88;5.65;;;18.30;99.90;;;;;;5053887;28;20033;-89
2023/07/12 05:25:05;;;;;;;16.90;5.30;;;18.20;99.90;;;;;;5054324;28;20033;-90
2023/07/12 05:27:51;;;;;;;10.02;4.95;;;18.20;99.90;;;;;;5053546;28;20061;-91
2023/07/12 05:30:17;;;;;;;15.63;5.82;;;18.20;99.90;;;;;;5054855;28;20104;-90
2023/07/12 05:32:42;;;;;;;15.15;5.50;;;18.30;99.90;;;;;;5054942;28;20044;-90
2023/07/12 05:35:31;;;;;;;12.93;5.90;;;18.30;99.90;;;;;;5023685;28;20036;-90
2023/07/12 05:37:56;;;;;;;10.70;5.90;;;17.70;99.90;;;;;;5059554;28;20025;-90
2023/07/12 05:40:43;;;;;;;15.45;6.57;;;18.30;99.90;;;;;;5057309;28;20056;-91
2023/07/12 05:43:13;;;;;;;13.82;5.88;;;18.20;99.90;;;;;;5056954;28;20404;-90
2023/07/12 05:46:03;;;;;;;13.20;5.33;;;19.20;99.90;;;;;;5066464;28;20028;-90
2023/07/12 05:48:28;;;;;;;17.13;5.43;;;18.30;99.90;;;;;;5068611;28;20302;-90
2023/07/12 05:51:17;;;;;;;16.15;5.80;;;19.20;99.90;;;;;;5085299;28;20042;-92
2023/07/12 05:53:44;;;;;;;20.55;6.45;;;17.90;99.90;;;;;;5081679;28;20036;-92
2023/07/12 05:56:30;;;;;;;13.38;5.78;;;19.00;99.90;;;;;;5086561;28;20016;-89
2023/07/12 05:58:59;;;;;;;10.85;6.32;;;17.80;99.90;;;;;;5097251;28;20016;-88
2023/07/12 06:01:26;;;;;;;13.15;5.78;;;18.40;99.90;;;;;;5084493;28;20032;-90
2023/07/12 06:04:11;;;;;;;11.27;5.13;;;18.40;99.90;;;;;;5074311;28;20031;-90
2023/07/12 06:06:38;;;;;;;20.10;5.68;;;18.30;99.90;;;;;;5073664;28;20027;-90
2023/07/12 06:09:27;;;;;;;17.70;6.55;;;19.40;99.90;;;;;;5073737;28;20036;-92
2023/07/12 06:11:52;;;;;;;11.02;5.07;;;18.20;99.90;;;;;;5072569;28;20033;-91
2023/07/12 06:14:18;;;;;;;16.63;4.85;;;19.20;99.90;;;;;;5073246;28;20021;-91
2023/07/12 06:17:08;;;;;;;14.52;5.38;;;18.30;99.90;;;;;;5073899;28;20051;-93
2023/07/12 06:19:34;;;;;;;16.95;7.10;;;18.30;99.90;;;;;;5074751;28;20024;-92
2023/07/12 06:22:23;;;;;;;15.20;5.22;;;18.30;99.90;;;;;;5074258;28;20024;-93
2023/07/12 06:24:49;;;;;;;14.52;5.70;;;18.30;99.90;;;;;;5076953;28;20031;-91
2023/07/12 06:27:37;;;;;;;14.20;5.38;;;19.10;99.90;;;;;;5078218;28;20025;-93
2023/07/12 06:30:03;;;;;;;16.95;5.63;;;18.40;99.90;;;;;;5078775;28;20025;-92
2023/07/12 06:32:50;;;;;;;18.88;4.85;;;18.30;99.90;;;;;;5078389;28;20108;-93
2023/07/12 06:35:16;;;;;;;17.98;4.93;;;18.40;99.90;;;;;;5078021;28;20048;-89
2023/07/12 06:37:42;;;;;;;15.20;4.55;;;18.40;99.90;;;;;;5077286;28;20060;-89
2023/07/12 06:40:26;;;;;;;17.30;4.90;;;18.50;99.90;;;;;;5073551;28;20052;-89
2023/07/12 06:42:51;;;;;;;20.08;6.13;;;19.50;99.90;;;;;;5077629;28;20024;-90
2023/07/12 06:45:17;;;;;;;15.10;4.70;;;18.60;99.90;;;;;;5077313;28;20491;-90
2023/07/12 06:48:04;;;;;;;14.50;4.78;;;18.60;99.90;;;;;;5076700;28;20028;-90
2023/07/12 06:50:30;;;;;;;11.43;4.68;;;18.70;99.90;;;;;;5077023;28;20056;-90
2023/07/12 06:53:11;;;;;;;14.20;4.47;;;18.70;99.90;;;;;;5077649;28;20060;-88
2023/07/12 06:55:42;;;;;;;17.63;5.63;;;18.80;99.90;;;;;;5077107;28;20021;-89
2023/07/12 06:58:28;;;;;;;8.07;3.83;;;18.80;99.90;;;;;;5077426;28;20025;-93
2023/07/12 07:00:54;;;;;;;14.18;4.55;;;19.60;99.90;;;;;;5077329;28;20107;-90
2023/07/12 07:03:20;;;;;;;14.43;4.60;;;18.90;99.90;;;;;;5085400;28;20503;-87
2023/07/12 07:06:03;;;;;;;13.10;5.25;;;18.90;99.90;;;;;;5084727;28;20028;-90
2023/07/12 07:08:29;;;;;;;18.27;5.28;;;20.00;99.90;;;;;;5090000;28;20105;-90
2023/07/12 07:11:19;;;;;;;22.00;5.88;;;18.20;99.90;;;;;;5079882;28;20496;-90
2023/07/12 07:13:44;;;;;;;23.67;5.90;;;18.20;99.90;;;;;;5078576;28;20025;-89
2023/07/12 07:16:32;;;;;;;12.50;4.80;;;18.90;99.90;;;;;;5076861;28;20025;-91
2023/07/12 07:18:58;;;;;;;10.35;5.10;;;18.90;99.90;;;;;;5075773;28;20027;-89
2023/07/12 07:21:47;;;;;;;14.20;4.57;;;19.20;99.90;;;;;;5092628;28;20028;-87
2023/07/12 07:24:12;;;;;;;13.18;5.07;;;19.00;99.90;;;;;;5082268;28;20046;-88
2023/07/12 07:27:03;;;;;;;22.55;4.70;;;19.00;99.90;;;;;;5090585;28;20357;-90
2023/07/12 07:29:29;;;;;;;16.15;4.25;;;19.00;99.90;;;;;;5080406;28;20093;-89
2023/07/12 07:32:13;;;;;;;14.43;4.28;;;19.10;99.90;;;;;;5082953;28;20021;-87
2023/07/12 07:34:39;;;;;;;13.30;4.18;;;19.40;99.90;;;;;;5086786;28;20035;-87
2023/07/12 07:37:28;;;;;;;18.88;3.97;;;19.00;99.90;;;;;;5086558;28;20021;-92
2023/07/12 07:40:17;;;;;;;15.55;4.57;;;19.10;99.90;;;;;;5083944;28;20040;-90
2023/07/12 07:43:02;;;;;;;11.48;3.83;;;19.40;99.90;;;;;;5091348;28;20016;-89
2023/07/12 07:45:30;;;;;;;16.10;4.38;;;19.00;99.90;;;;;;5100075;28;20010;-88
2023/07/12 07:47:56;;;;;;;15.23;3.88;;;19.10;99.90;;;;;;5086464;28;20032;-89
2023/07/12 07:50:28;;;;;;;20.50;3.78;;;19.10;99.90;;;;;;5076802;28;20025;-90
2023/07/12 07:52:53;;;;;;;17.40;4.30;;;19.20;99.90;;;;;;5075662;28;20495;-90
2023/07/12 07:55:43;;;;;;;15.23;4.47;;;19.40;99.90;;;;;;5076149;28;20020;-88
2023/07/12 07:58:29;;;;;;;19.58;3.78;;;19.30;99.90;;;;;;5074783;28;20030;-88
2023/07/12 08:01:18;;;;;;;14.43;4.65;;;19.00;99.90;;;;;;5074928;28;20033;-93
2023/07/12 08:03:44;;;;;;;11.60;4.70;;;18.90;99.90;;;;;;5076758;28;20028;-91
2023/07/12 08:06:10;;;;;;;11.98;3.92;;;19.50;99.90;;;;;;5076864;28;20024;-90
2023/07/12 08:08:44;;;;;;;13.88;3.35;;;20.40;99.90;;;;;;5076275;28;20189;-90
2023/07/12 08:11:09;;;;;;;14.82;3.97;;;19.50;99.90;;;;;;5076234;28;20094;-90
2023/07/12 08:16:20;;;;;;;12.93;4.32;;;19.50;99.90;;;;;;5083163;22;20063;-93
2023/07/12 08:18:47;;;;;;;10.18;3.95;;;19.60;99.90;;;;;;5075722;28;20029;-91
2023/07/12 08:21:17;;;;;;;19.77;3.83;;;19.60;99.90;;;;;;5081006;28;20016;-89
2023/07/12 08:23:57;;;;;;;14.43;3.92;;;20.50;99.90;;;;;;5057439;28;20025;-90
2023/07/12 08:26:23;;;;;;;13.73;3.60;;;19.60;99.90;;;;;;5056786;28;20048;-92
2023/07/12 08:28:49;;;;;;;8.82;3.65;;;19.60;99.90;;;;;;5056473;28;20411;-90
2023/07/12 08:31:44;;;;;;;12.38;3.63;;;20.10;99.90;;;;;;5056859;28;20021;-93
2023/07/12 08:34:25;;;;;;;9.52;3.30;;;19.70;99.90;;;;;;5069879;28;20012;-87
2023/07/12 08:37:08;;;;;;;12.00;3.25;;;20.60;99.90;;;;;;5095715;28;20387;-90
2023/07/12 08:39:34;;;;;;;12.38;4.30;;;19.80;99.90;;;;;;5095812;28;20475;-91
2023/07/12 08:47:30;;;;;;;10.15;2.97;;;19.90;99.90;;;;;;5079719;26;20099;-88
2023/07/12 08:49:56;;;;;;;8.48;2.80;;;20.10;99.90;;;;;;5069325;28;20067;-89
2023/07/12 08:52:40;;;;;;;8.00;2.97;;;19.90;99.90;;;;;;5071556;28;20021;-89
2023/07/12 08:55:20;;;;;;;8.85;3.22;;;20.00;99.90;;;;;;5068550;28;20037;-89
2023/07/12 08:58:03;;;;;;;9.53;4.23;;;20.10;99.90;;;;;;5076140;28;20028;-89
2023/07/12 09:00:34;;;;;;;10.38;2.88;;;20.10;99.90;;;;;;5072134;28;20033;-88
2023/07/12 09:03:00;;;;;;;11.00;3.28;;;20.20;99.90;;;;;;5073383;28;20119;-89
2023/07/12 09:05:27;;;;;;;9.93;3.03;;;19.80;99.90;;;;;;5068256;28;20064;-89
2023/07/12 09:08:20;;;;;;;7.35;2.72;;;19.70;99.90;;;;;;5073503;28;20036;-89
2023/07/12 09:10:50;;;;;;;9.18;3.15;;;20.10;99.90;;;;;;5069039;28;20024;-88
2023/07/12 09:13:17;;;;;;;9.20;3.30;;;19.50;99.90;;;;;;5076633;28;20457;-89
2023/07/12 09:15:47;;;;;;;8.25;3.35;;;20.20;99.90;;;;;;5073113;28;20048;-88
2023/07/12 09:18:36;;;;;;;10.88;2.55;;;19.60;99.90;;;;;;5072676;28;20275;-88
2023/07/12 09:21:19;;;;;;;6.75;2.83;;;19.60;99.90;;;;;;5077125;28;20386;-89
2023/07/12 09:23:45;;;;;;;13.63;3.25;;;19.70;99.90;;;;;;5081272;28;20023;-87
2023/07/12 09:26:27;;;;;;;10.30;3.85;;;19.80;99.90;;;;;;5072132;28;20020;-87
2023/07/12 09:29:13;;;;;;;6.53;2.22;;;20.10;99.90;;;;;;5072482;28;20041;-88
2023/07/12 09:31:47;;;;;;;9.48;2.17;;;19.90;99.90;;;;;;5070420;28;20451;-88
2023/07/12 09:34:31;;;;;;;10.02;2.40;;;20.30;99.90;;;;;;5072620;28;20037;-88
2023/07/12 09:36:59;;;;;;;6.90;2.38;;;19.90;99.90;;;;;;5075982;28;20021;-87
2023/07/12 09:39:37;;;;;;;6.25;2.47;;;20.00;99.90;;;;;;5072649;28;20016;-87
2023/07/12 09:42:03;;;;;;;11.13;3.47;;;20.10;99.90;;;;;;5075755;28;20028;-87
2023/07/12 09:44:30;;;;;;;10.98;2.47;;;20.20;99.90;;;;;;5075593;28;20017;-87
2023/07/12 09:47:34;;;;;;;6.30;2.85;;;20.00;99.90;;;;;;5066723;28;20059;-89
2023/07/12 09:50:00;;;;;;;8.68;2.53;;;20.10;99.90;;;;;;5071832;28;20073;-88
2023/07/12 09:52:40;;;;;;;6.40;2.42;;;20.10;99.90;;;;;;5071779;28;20467;-86
2023/07/12 09:55:29;;;;;;;10.10;2.63;;;20.10;99.90;;;;;;5072549;28;20039;-87
2023/07/12 09:58:20;;;;;;;6.45;2.53;;;20.20;99.90;;;;;;5072813;28;20021;-87
2023/07/12 10:01:12;;;;;;;3.25;1.63;;;20.20;99.90;;;;;;5071694;28;20495;-88
2023/07/12 10:03:50;;;;;;;9.65;3.40;;;20.40;99.90;;;;;;5073111;28;20021;-88
2023/07/12 10:06:44;;;;;;;4.63;2.05;;;20.30;99.90;;;;;;5073775;28;20029;-90
2023/07/12 10:09:16;;;;;;;7.25;1.92;;;20.40;99.90;;;;;;5077428;28;20052;-89
2023/07/12 10:12:04;;;;;;;11.07;2.42;;;20.30;99.90;;;;;;5072311;28;20048;-86
2023/07/12 10:14:39;;;;;;;6.57;2.50;;;20.30;99.90;;;;;;5070563;28;20028;-88
2023/07/12 10:19:54;;;;;;;7.85;2.40;;;20.30;99.90;;;;;;5060960;28;20107;-88
2023/07/12 10:22:51;;;;;;;9.32;2.60;;;20.40;99.90;;;;;;5083759;23;20048;-88
2023/07/12 10:25:22;;;;;;;6.55;2.33;;;20.40;99.90;;;;;;5059374;28;20029;-87
2023/07/12 10:27:56;;;;;;;6.70;2.80;;;20.40;99.90;;;;;;5072040;28;20119;-88
2023/07/12 10:30:26;;;;;;;6.32;2.92;;;20.30;99.90;;;;;;5073211;28;20028;-89
2023/07/12 10:33:10;;;;;;;8.30;2.50;;;20.30;99.90;;;;;;5079567;23;20072;-91
2023/07/12 10:35:54;;;;;;;8.55;2.53;;;20.40;99.90;;;;;;5084831;28;20029;-89
2023/07/12 10:38:35;;;;;;;5.75;2.25;;;20.40;99.90;;;;;;5073595;28;20028;-89
2023/07/12 10:41:20;;;;;;;5.38;2.47;;;19.80;99.90;;;;;;5073288;28;20370;-89
2023/07/12 10:43:49;;;;;;;5.25;2.17;;;20.30;99.90;;;;;;5073810;28;20047;-89
2023/07/12 10:46:38;;;;;;;8.20;2.25;;;20.60;99.90;;;;;;5092117;28;20023;-88
2023/07/12 10:49:20;;;;;;;9.05;3.53;;;20.30;99.90;;;;;;5093654;28;20072;-89
2023/07/12 10:52:37;;;;;;;7.60;2.00;;;20.50;99.90;;;;;;5096619;28;20035;-90
2023/07/12 10:55:50;;;;;;;8.63;2.15;;;20.60;99.90;;;;;;5034769;28;20479;-89
2023/07/12 10:58:19;;;;;;;6.88;1.98;;;20.80;99.90;;;;;;5079844;23;20527;-89
2023/07/12 11:00:55;;;;;;;4.25;2.53;;;20.80;99.90;;;;;;5073410;28;20479;-93
2023/07/12 11:04:04;;;;;;;11.00;3.50;;;20.80;99.90;;;;;;5071691;28;20067;-91
2023/07/12 11:06:33;;;;;;;7.90;2.63;;;20.80;99.90;;;;;;5073035;28;20371;-91
2023/07/12 11:08:59;;;;;;;7.38;1.92;;;20.70;99.90;;;;;;5072342;28;20071;-90
2023/07/12 11:12:10;;;;;;;8.18;2.08;;;20.70;99.90;;;;;;5073851;28;20060;-88
2023/07/12 11:14:38;;;;;;;6.95;2.00;;;20.70;99.90;;;;;;5076532;28;20028;-88
2023/07/12 11:17:07;;;;;;;9.23;2.67;;;20.70;99.90;;;;;;5073933;28;20028;-88
2023/07/12 11:19:38;;;;;;;4.20;2.10;;;20.80;99.90;;;;;;5077315;28;20082;-87
2023/07/12 11:22:20;;;;;;;5.93;3.42;;;20.80;99.90;;;;;;5084148;28;20029;-87
2023/07/12 11:25:27;;;;;;;2.95;2.25;;;20.90;99.90;;;;;;5082933;28;20021;-87
2023/07/12 11:27:53;;;;;;;6.53;2.40;;;20.70;99.90;;;;;;5074382;28;20064;-87
2023/07/12 11:30:41;;;;;;;5.95;2.33;;;20.80;99.90;;;;;;5091514;22;20164;-86
2023/07/12 11:33:37;;;;;;;4.97;2.15;;;20.80;99.90;;;;;;5074154;28;20029;-88
2023/07/12 11:36:19;;;;;;;7.88;2.63;;;20.80;99.90;;;;;;5075798;28;20078;-88
2023/07/12 11:39:30;;;;;;;4.97;1.65;;;20.70;99.90;;;;;;5075275;28;20024;-88
2023/07/12 11:42:12;;;;;;;4.82;1.92;;;20.80;99.90;;;;;;5075728;28;20024;-87
2023/07/12 11:44:41;;;;;;;7.70;2.10;;;20.90;99.90;;;;;;5075115;28;20612;-88
2023/07/12 11:47:09;;;;;;;6.15;2.38;;;20.90;99.90;;;;;;5074819;28;20024;-87
2023/07/12 11:49:38;;;;;;;4.53;2.35;;;21.10;99.90;;;;;;5074916;28;20376;-88
2023/07/12 11:52:15;;;;;;;15.57;2.75;;;20.80;99.90;;;;;;5075258;28;20052;-88
2023/07/12 11:54:42;;;;;;;7.40;2.40;;;20.90;99.90;;;;;;5074869;28;20020;-88
2023/07/12 11:57:50;;;;;;;5.15;1.88;;;21.50;99.90;;;;;;5075082;28;20025;-88
2023/07/12 12:00:23;;;;;;;5.63;1.95;;;20.90;99.90;;;;;;4993442;28;20034;-88
2023/07/12 12:03:03;;;;;;;6.63;1.85;;;21.00;99.90;;;;;;5010810;28;20089;-88
2023/07/12 12:05:33;;;;;;;6.47;1.48;;;21.00;99.90;;;;;;5071926;28;20452;-88
2023/07/12 12:07:59;;;;;;;5.38;2.35;;;21.00;99.90;;;;;;5074528;28;20040;-87
2023/07/12 12:10:45;;;;;;;5.43;1.90;;;21.00;99.90;;;;;;5074918;28;20378;-88
2023/07/12 12:13:30;;;;;;;4.25;1.55;;;21.00;99.90;;;;;;5075572;28;20020;-88
2023/07/12 12:15:58;;;;;;;4.35;1.35;;;21.00;99.90;;;;;;5074633;28;20032;-88
2023/07/12 12:18:36;;;;;;;5.80;1.77;;;20.90;99.90;;;;;;5070793;28;20021;-87
2023/07/12 12:21:04;;;;;;;4.65;1.55;;;21.00;99.90;;;;;;5073946;28;20036;-87
2023/07/12 12:23:42;;;;;;;12.57;1.33;;;21.70;99.90;;;;;;5077771;28;20031;-88
2023/07/12 12:26:19;;;;;;;2.90;1.70;;;21.00;99.90;;;;;;5067444;28;20032;-89
2023/07/12 12:29:10;;;;;;;1.83;1.20;;;21.10;99.90;;;;;;5073286;28;20395;-87
2023/07/12 12:31:50;;;;;;;6.63;1.33;;;21.00;99.90;;;;;;5073918;28;20048;-95
2023/07/12 12:34:18;;;;;;;3.63;1.50;;;21.00;99.90;;;;;;5074131;28;20052;-88
2023/07/12 12:37:00;;;;;;;4.85;1.25;;;21.10;99.90;;;;;;5075032;28;20019;-90
2023/07/12 12:39:34;;;;;;;3.85;1.13;;;21.00;99.90;;;;;;5083728;28;20544;-88
2023/07/12 12:42:18;;;;;;;2.05;1.50;;;20.70;99.90;;;;;;5074437;28;20028;-89
2023/07/12 12:44:44;;;;;;;6.57;1.50;;;21.00;99.90;;;;;;5076842;28;20020;-88
2023/07/12 12:47:18;;;;;;;4.80;1.83;;;21.10;99.90;;;;;;5075127;28;20032;-87
2023/07/12 12:49:57;;;;;;;2.70;1.60;;;21.70;99.90;;;;;;5073300;28;20094;-87
2023/07/12 12:52:34;;;;;;;8.18;1.33;;;21.00;99.90;;;;;;5080675;22;20056;-88
2023/07/12 12:55:06;;;;;;;4.70;1.05;;;20.90;99.90;;;;;;5073841;28;20247;-88
2023/07/12 12:57:35;;;;;;;3.63;1.35;;;20.90;99.90;;;;;;5071067;28;20025;-87
2023/07/12 13:00:04;;;;;;;3.13;1.85;;;21.20;99.90;;;;;;5071460;28;20099;-88
2023/07/12 13:02:33;;;;;;;5.88;1.40;;;21.10;99.90;;;;;;5070491;28;20028;-87
2023/07/12 13:05:08;;;;;;;2.42;1.45;;;21.00;99.90;;;;;;5071836;28;20028;-87
2023/07/12 13:07:46;;;;;;;2.55;1.30;;;21.00;99.90;;;;;;5071540;28;20063;-88
2023/07/12 13:10:21;;;;;;;4.00;1.20;;;21.20;99.90;;;;;;5070307;28;20025;-87
2023/07/12 13:12:49;;;;;;;2.22;1.17;;;21.00;99.90;;;;;;5071786;28;20025;-87
2023/07/12 13:15:19;;;;;;;8.68;1.35;;;21.10;99.90;;;;;;5072523;28;20066;-87
2023/07/12 13:17:45;;;;;;;7.30;1.60;;;21.10;99.90;;;;;;5073405;28;20491;-88
2023/07/12 13:20:20;;;;;;;6.65;1.55;;;21.20;99.90;;;;;;5077127;28;20036;-88
2023/07/12 13:22:47;;;;;;;2.20;1.55;;;21.70;99.90;;;;;;5073367;28;20020;-88
2023/07/12 13:28:13;;;;;;;4.32;1.50;;;21.10;99.90;;;;;;5064516;28;20101;-87
2023/07/12 13:30:39;;;;;;;;;;;21.20;99.90;;;;;;5075329;28;20055;-88
2023/07/12 13:33:16;;;;;;;3.95;1.52;;;21.30;99.90;;;;;;5075536;28;19904;-86
2023/07/12 13:35:47;;;;;;;3.35;1.42;;;21.40;99.90;;;;;;5076105;28;20028;-88
2023/07/12 13:38:28;;;;;;;5.35;1.27;;;21.60;99.90;;;;;;5086736;28;20028;-87
2023/07/12 13:41:23;;;;;;;4.28;1.08;;;21.40;99.90;;;;;;5087502;28;20025;-87
2023/07/12 13:43:50;;;;;;;1.60;0.90;;;21.50;99.90;;;;;;5069543;28;20044;-87
2023/07/12 13:46:28;;;;;;;3.55;0.90;;;21.60;99.20;;;;;;5084081;28;20102;-87
2023/07/12 13:49:03;;;;;;;2.28;0.80;;;21.60;99.60;;;;;;5073311;28;20094;-88